Iranshahr, Iran
Current Conditions -  °F | °C
As of 2:00 PM on Monday 20 Oct 2014 (Local Time) from OIZI Reporting Station
Few Clouds Few Clouds  
Wind Chill: 95°   Ceiling: Unl
Heat Index: 95°   Visibility: 6mi
Dew Point: 37°   Wind: 5mph
Humidity: 13%   Direction: 260°W
Pressure: 29.91"   Gusts: NA
Location:  27.21°N, 60.69°E
Report Text: OIZI 201100Z 26004KT 9999 FEW045 35/03 Q1013
Loading
Personal Weather Stations






























Interactive Weather Map
Tropical Storm Tracking
New forecast layout! Learn more

10-Day Weather Forecast

Advertisements
Track Severe Weather on mobile